TOP > 外国特許検索

外国特許検索

Display results per page Option
Patent state
Country

Clear

Hits 4721 results

No. Application number
Gazette No
Country
Title
Release Date
Update Date
Information Provider
4401 2017JP005600 WO 2017141997 世界知的所有権機関(WIPO) CHARACTERISTIC AMOUNT CONVERSION MODULE, PATTERN IDENTIFICATION DEVICE, PATTERN IDENTIFICATION METHOD, AND PROGRAM 2017/09/06 2019/04/22 電気通信大学
4402 2017JP006478 WO 2017146073 世界知的所有権機関(WIPO) VOICE QUALITY CONVERSION DEVICE, VOICE QUALITY CONVERSION METHOD AND PROGRAM 2017/09/14 2019/04/22 電気通信大学
4403 2016JP088196 WO 2017149912 世界知的所有権機関(WIPO) SHAPE MEASUREMENT METHOD AND SHAPE MEASUREMENT DEVICE 新技術説明会 2017/09/21 2019/04/22 電気通信大学
4404 2016JP075849 WO 2017043424 世界知的所有権機関(WIPO) SOUND-SYMBOLIZING WORD/PHYSICAL CHARACTERISTIC INFORMATION PROVISION DEVICE, SOUND-SYMBOLIZING WORD/PHYSICAL CHARACTERISTIC INFORMATION PROVISION METHOD, AND SOUND-SYMBOLIZING WORD/PHYSICAL CHARACTERISTIC INFORMATION PROVISION PROGRAM 2017/10/18 2019/04/22 電気通信大学
4405 2017JP015793 WO 2017208656 世界知的所有権機関(WIPO) MANIPULATOR 2017/12/20 2017/12/20 電気通信大学
4406 2017JP032109 WO 2018047863 世界知的所有権機関(WIPO) INFORMATION PROCESSING DEVICE, INFORMATION PROCESSING METHOD, AND PROGRAM 2018/04/19 2018/04/19 電気通信大学
4407 2017JP037881 WO 2018074556 世界知的所有権機関(WIPO) TEXTURE EXPRESSION EVALUATION DEVICE, TEXTURE EXPRESSION EVALUATION METHOD, TEXTURE EXPRESSION EVALUATION PROGRAM, AND TEXTURE EXPRESSION RESPONSE SHEET 新技術説明会 2018/11/01 2019/02/01 電気通信大学
4408 2018JP007268 WO 2018159612 世界知的所有権機関(WIPO) VOICE QUALITY CONVERSION DEVICE, VOICE QUALITY CONVERSION METHOD AND PROGRAM 2018/11/02 2019/02/01 電気通信大学
4409 2017JP036434 WO 2018066687 世界知的所有権機関(WIPO) WIRELESS SENSOR DEVICE AND WIRELESS SENSOR SYSTEM 2019/01/22 2019/04/22 電気通信大学
4410 2018JP006447 WO 2018159445 世界知的所有権機関(WIPO) OPTICAL COMB CONTROL METHOD AND OPTICAL COMB CONTROL DEVICE 新技術説明会 2019/05/08 2019/05/08 電気通信大学
4411 2018JP017420 WO 2018216438 世界知的所有権機関(WIPO) WIRELESS COMMUNICATION APPARATUS AND ANTENNA DEVICE 新技術説明会 2019/07/25 2019/07/25 電気通信大学
4412 2018JP038954 WO 2019078343 世界知的所有権機関(WIPO) ENCRYPTION CONTROL SYSTEM, ENCRYPTION CONTROL METHOD AND ENCRYPTION CONTROL PROGRAM 2019/07/26 2019/07/26 電気通信大学
4413 2020JP008362 WO2020179672 世界知的所有権機関(WIPO) ENCRYPTION CONTROL SYSTEM, ENCRYPTION CONTROL METHOD, AND ENCRYPTION CONTROL PROGRAM 2020/11/05 2020/11/05 電気通信大学
4414 2020JP022388 WO 2020246600 世界知的所有権機関(WIPO) LEARNING DEVICE, SPACE CONTROL DEVICE, LEARNING PROGRAM, AND SPACE CONTROL PROGRAM 2021/01/28 2021/01/28 電気通信大学
4415 2007JP067223 WO 2008/029804 世界知的所有権機関(WIPO) PERCHLORIC ACID ION TRAPPING AGENT 新技術説明会 2008/06/06 2008/10/16 静岡大学
4416 2010JP062351 WO 2011/010695 世界知的所有権機関(WIPO) METHOD FOR INCREASING YIELD OF STAPLE FOOD CROP 2011/03/18 2011/03/18 静岡大学
4417 2010JP055292 WO 2010/110398 世界知的所有権機関(WIPO) RECONFIGURATION CONTROL APPARATUS FOR OPTICALLY RECONFIGURABLE GATE ARRAY AND INFORMATION READ APPARATUS FOR HOLOGRAM MEMORY 新技術説明会 2011/03/24 2011/04/22 静岡大学
4418 2008JP002392 WO 2009/031290 世界知的所有権機関(WIPO) ACOUSTIC WAVE DEVICE 新技術説明会 2011/03/24 2011/04/22 静岡大学
4419 2010JP059521 WO 2010/140679 世界知的所有権機関(WIPO) PORTABLE FLUORESCENCE MICROSCOPE DEVICE 新技術説明会 2011/03/24 2011/04/22 静岡大学
4420 2008JP061429 WO 2009/001805 世界知的所有権機関(WIPO) NOVEL ARTIFICIAL N-LINKED SIALO-SUGAR CHAIN-CONTAINING POLYMER AND METHOD FOR PRODUCING THE SAME 2011/03/24 2011/04/22 静岡大学
4421 2007JP061108 WO 2007/139192 世界知的所有権機関(WIPO) OPTICAL MEASURING DEVICE, OPTICAL MEASURING METHOD, AND STORAGE MEDIUM STORING OPTICAL MEASUREMENT PROGRAM 2011/03/28 2011/03/28 静岡大学
4422 2007JP061633 WO 2007/142327 世界知的所有権機関(WIPO) CONVERTER CIRCUIT, ANALOG/DIGITAL CONVERTER, AND METHOD FOR GENERATING DIGITAL SIGNALS CORRESPONDING TO ANALOG SIGNALS 2011/03/28 2011/03/28 静岡大学
4423 2007JP061635 WO 2007/142328 世界知的所有権機関(WIPO) ANALOG DIGITAL CONVERTER, A/D CONVERSION STAGE, METHOD FOR GENERATING DIGITAL SIGNAL CORRESPONDING TO ANALOG SIGNAL, AND METHOD FOR GENERATING SIGNAL INDICATING CONVERSION ERROR IN THE A/D CONVERSION STAGE 2011/03/28 2011/03/28 静岡大学
4424 2007JP064986 WO 2008/016049 世界知的所有権機関(WIPO) A/D CONVERTER AND READING CIRCUIT 2011/03/28 2011/03/28 静岡大学
4425 2007JP073215 WO 2008/069141 世界知的所有権機関(WIPO) SEMICONDUCTOR DISTANCE MEASURING ELEMENT AND SOLID-STATE IMAGING DEVICE 2011/03/28 2011/03/28 静岡大学
4426 2009JP053265 WO 2009/107603 世界知的所有権機関(WIPO) PROCESS AND APPARATUS FOR PRODUCING CARBON NANOTUBE, CARBON NANOTUBE FIBER, AND THE LIKE 2011/04/11 2011/04/26 静岡大学
4427 2009JP054051 WO 2009/110499 世界知的所有権機関(WIPO) METHOD FOR WATER PURIFICATION, EQUIPMENT FOR WATER PURIFICATION, AND WATER PURIFICATION SET 2011/04/11 2011/04/26 静岡大学
4428 2010JP061558 WO 2011/004849 世界知的所有権機関(WIPO) DIVERSITY RECEPTION DEVICE 新技術説明会 2011/04/14 2011/04/26 静岡大学
4429 2009JP002478 WO 2009/147840 世界知的所有権機関(WIPO) IMAGE RETRIEVAL DEVICE AND IMAGE RETRIEVAL COMPUTER PROGRAM APPLIED TO THE IMAGE RETRIEVAL DEVICE 新技術説明会 2011/05/09 2011/05/25 静岡大学
4430 2009JP002537 WO 2009/147862 世界知的所有権機関(WIPO) IMAGING DEVICE 2011/05/09 2011/05/25 静岡大学
4431 2009JP003346 WO 2010/010674 世界知的所有権機関(WIPO) FUCOSE .alpha.1-->6-SPECIFIC LECTIN 2011/05/09 2011/05/25 静岡大学
4432 2009JP060190 WO 2009/148094 世界知的所有権機関(WIPO) OPTICAL MICROSCOPE 新技術説明会 2011/05/09 2011/05/25 静岡大学
4433 2009JP060365 WO 2009/148157 世界知的所有権機関(WIPO) GRAPHIC INFORMATION PROCESSING DEVICE FOR FORMING AESTHETIC CURVES, GRAPHIC INFORMATION PROCESSING METHOD, AND GRAPHIC INFORMATION PROCESSING PROGRAM 新技術説明会 2011/05/09 2011/05/25 静岡大学
4434 2009JP061329 WO 2009/154294 世界知的所有権機関(WIPO) MOTION EXTRACTION DEVICE AND PROGRAM, IMAGE CORRECTION DEVICE AND PROGRAM, AND RECORDING MEDIUM 新技術説明会 2011/05/09 2011/05/25 静岡大学
4435 2009JP063197 WO 2010/010926 世界知的所有権機関(WIPO) FEATURE-POINT TRACKING METHOD AND FEATURE-POINT TRACKING DEVICE 2011/05/09 2011/05/25 静岡大学
4436 2009JP063582 WO 2010/013779 世界知的所有権機関(WIPO) DISTANCE IMAGE SENSOR AND METHOD FOR GENERATING IMAGE SIGNAL BY TIME-OF-FLIGHT METHOD 2011/05/09 2011/05/25 静岡大学
4437 2009JP063676 WO 2010/013811 世界知的所有権機関(WIPO) HIGH-SPEED CHARGE TRANSFER PHOTODIODE, LOCK-IN PIXEL, AND SOLID-STATE IMAGING DEVICE 2011/05/09 2011/05/25 静岡大学
4438 2009JP066421 WO 2010/032842 世界知的所有権機関(WIPO) INFORMATION ACQUISITION DEVICE AND OPTICAL COMMUNICATION SYSTEM 2011/05/09 2011/05/25 静岡大学
4439 2009JP067853 WO 2010/044444 世界知的所有権機関(WIPO) CYCLIC A/D CONVERTER, IMAGE SENSOR DEVICE, AND METHOD FOR GENERATING DIGITAL SIGNAL FROM ANALOG SIGNAL 2011/05/09 2011/05/25 静岡大学
4440 2009JP068352 WO 2010/050442 世界知的所有権機関(WIPO) METHOD OF REGENERATING THERMOSET EPOXY RESIN AND COMPOSITION FOR REGENERATION OF THERMOSET RESIN 2011/05/09 2011/05/25 静岡大学
4441 2009JP071647 WO 2010/074252 世界知的所有権機関(WIPO) SEMICONDUCTOR DEVICE AND SOLID-STATE IMAGING DEVICE 2011/05/09 2011/05/25 静岡大学
4442 2010JP052209 WO 2010/093040 世界知的所有権機関(WIPO) MOTION BLUR CONTROL DEVICE, METHOD AND PROGRAM 新技術説明会 2011/05/09 2011/05/25 静岡大学
4443 2010JP053163 WO 2010/103942 世界知的所有権機関(WIPO) METHOD AND DEVICE FOR CREATING SURFACE TREATMENT DATA 2011/05/09 2011/05/25 静岡大学
4444 2010JP059855 WO 2010/143691 世界知的所有権機関(WIPO) DIAGNOSIS APPARATUS 新技術説明会 2011/05/18 2011/05/25 静岡大学
4445 2010JP059022 WO 2010/137660 世界知的所有権機関(WIPO) A/D CONVERSION INTEGRATED CIRCUIT 2011/07/14 2011/08/01 静岡大学
4446 2010JP059563 WO 2010/140691 世界知的所有権機関(WIPO) DISCHARGE LAMP AND DISCHARGE LAMP DEVICE 新技術説明会 2011/09/06 2011/09/29 静岡大学
4447 2010JP066853 WO 2011/037263 世界知的所有権機関(WIPO) SOLVENT FOR ELECTROLYTIC SOLUTION, ELECTROLYTIC SOLUTION, AND GEL-LIKE ELECTROLYTE 2011/11/09 2011/12/02 静岡大学
4448 2010JP067452 WO 2011/043339 世界知的所有権機関(WIPO) SEMICONDUCTOR ELEMENT AND SOLID-STATE IMAGING DEVICE 2011/11/09 2011/12/02 静岡大学
4449 2010JP067672 WO 2011/043432 世界知的所有権機関(WIPO) SEMICONDUCTOR ELEMENT AND SOLID-STATE IMAGE PICKUP DEVICE 2011/11/09 2011/12/02 静岡大学
4450 99591309 8730382 アメリカ合衆国 Charge accumulating and splitting imaging device 2012/01/06 2018/07/19 静岡大学
4451 200913054940 8461305 アメリカ合衆国 L-fucose α1→6 specific lectin 2012/01/06 2018/07/19 静岡大学
4452 2010JP070416 WO 2011/059103 世界知的所有権機関(WIPO) ELECTRIC FIELD EMISSION ELEMENT 2012/01/12 2012/02/01 静岡大学
4453 2010JP053342 WO 2010/101147 世界知的所有権機関(WIPO) HYDROGEL FORMING AGENT 新技術説明会 2012/03/29 2012/04/05 静岡大学
4454 2010JP055450 WO 2010/110452 世界知的所有権機関(WIPO) FLUORESCENT THIN FILM, METHOD FOR MANUFACTURING FLUORESCENT THIN FILM, FINE LIGHT SOURCE EXCITATION APPARATUS, AND OPTICAL MICROSCOPE 2012/03/29 2012/04/05 静岡大学
4455 2012JP051720 WO 2012/102356 世界知的所有権機関(WIPO) CAPSULE-TYPE COMPOUND, ANION-REMOVING AGENT, AND ANION REMOVAL METHOD 新技術説明会 2012/04/09 2012/08/28 静岡大学
4456 2011JP056376 WO 2011/115207 世界知的所有権機関(WIPO) PROMOTER 2012/05/08 2012/05/31 静岡大学
4457 2011JP056372 WO 2011/115203 世界知的所有権機関(WIPO) POLYMER EXPANDED PARTICLE, EXPANDED TONER AND METHOD FOR PRODUCING POLYMER EXPANDED PARTICLE AND EXPANDED TONER 2012/05/17 2012/05/31 静岡大学
4458 2011JP065221 WO 2012002545 世界知的所有権機関(WIPO) DEVICE FOR PRODUCING ALUMINUM NITRIDE CRYSTAL GRAINS, METHOD FOR PRODUCING ALUMINUM NITRIDE CRYSTAL GRAINS, AND ALUMINUM NITRIDE CRYSTAL GRAINS 2012/05/17 2019/04/22 静岡大学
4459 2011JP065959 WO 2012/008484 世界知的所有権機関(WIPO) CONTACT STATE DETECTION DEVICE, CONTACT STATE DETECTION METHOD, COMPUTER PROGRAM FOR CONTACT STATE DETECTION, ELECTRICAL CONDUCTIVITY MEASUREMENT SYSTEM PROVIDED WITH CONTACT STATE DETECTION DEVICE, AND ELECTRICAL CONDUCTIVITY MEASUREMENT METHOD INVOLVING CONTACT STATE DETECTION METHOD 2012/05/17 2012/05/31 静岡大学
4460 2011JP068164 WO 2012/020760 世界知的所有権機関(WIPO) GAZE POINT DETECTION METHOD AND GAZE POINT DETECTION DEVICE 2012/05/17 2012/05/31 静岡大学
4461 2011JP071560 WO 2012/039449 世界知的所有権機関(WIPO) INCHWORM ACTUATOR 2012/05/17 2012/05/31 静岡大学
4462 2011JP051813 WO 2011/096340 世界知的所有権機関(WIPO) SOLID-STATE IMAGE PICKUP DEVICE, METHOD OF READING PIXEL SIGNAL, AND PIXEL 2012/05/25 2012/05/31 静岡大学
4463 2011JP052447 WO 2011/096549 世界知的所有権機関(WIPO) OPTICAL INFORMATION ACQUIRING ELEMENT, OPTICAL INFORMATION ACQUIRING ELEMENT ARRAY, AND HYBRID SOLID-STATE IMAGE PICKUP DEVICE 2012/05/25 2012/05/31 静岡大学
4464 2011JP077687 WO 2012/074014 世界知的所有権機関(WIPO) IMAGE COLOR ESTIMATION METHOD, IMAGE COLOR ESTIMATION DEVICE, AND IMAGE COLOR ESTIMATION PROGRAM 2012/06/20 2012/06/27 静岡大学
4465 2011JP078302 WO 2012/077713 世界知的所有権機関(WIPO) METHOD FOR DETECTING POINT OF GAZE AND DEVICE FOR DETECTING POINT OF GAZE 2012/06/27 2012/06/27 静岡大学
4466 2012JP053868 WO 2012/111821 世界知的所有権機関(WIPO) A/D CONVERTER, IMAGE SENSOR DEVICE, AND METHOD OF GENERATING DIGITAL SIGNAL FROM ANALOG SIGNAL 2012/09/05 2012/09/25 静岡大学
4467 2012JP058189 WO 2012/133556 世界知的所有権機関(WIPO) ELECTROLYTE SOLUTION FOR LITHIUM SECONDARY BATTERIES, AND LITHIUM SECONDARY BATTERY 2012/10/17 2012/10/17 静岡大学
4468 2012JP060989 WO 2012/147750 世界知的所有権機関(WIPO) IMIDAZOLE DERIVATIVE 2012/11/14 2012/11/14 静岡大学
4469 2012JP054473 WO 2012/115210 世界知的所有権機関(WIPO) OPTICAL MEASUREMENT DEVICE 2013/03/07 2013/03/07 静岡大学
4470 2012JP079535 WO 2013/073585 世界知的所有権機関(WIPO) LAMP SIGNAL GENERATION CIRCUIT AND CMOS IMAGE SENSOR 2013/06/05 2013/06/05 静岡大学
4471 2012JP081330 WO 2013/084861 世界知的所有権機関(WIPO) TENSILE TESTING MACHINE 新技術説明会 2013/06/27 2013/06/27 静岡大学
4472 2012JP062054 WO 2012/153816 世界知的所有権機関(WIPO) METHOD AND APPARATUS FOR PRODUCING CARBON NANOTUBES 2013/07/04 2013/07/04 静岡大学
4473 2012JP075535 WO 2013/051569 世界知的所有権機関(WIPO) BIOREACTOR, METHANE GENERATION METHOD AND HYDROGEN GAS GENERATION METHOD USING SAME, AND SELF-PROVISION SYSTEM FOR WATER/GAS/ELECTRICITY 新技術説明会 2013/07/18 2013/07/18 静岡大学
4474 2012JP068870 WO 2013/018623 世界知的所有権機関(WIPO) SOLID STATE IMAGE PICK-UP DEVICE, AND PIXEL 2013/08/13 2013/08/13 静岡大学
4475 2013JP064511 WO 2013/176265 世界知的所有権機関(WIPO) PUPIL DETECTION METHOD, CORNEAL REFLEX DETECTION METHOD, FACIAL POSTURE DETECTION METHOD, AND PUPIL TRACKING METHOD 2013/12/12 2013/12/12 静岡大学
4476 2013JP062769 WO 2013/183391 世界知的所有権機関(WIPO) IMAGE-FILTERING DEVICE, IMAGE-FILTERING METHOD, AND IMAGE-FILTERING PROGRAM 2013/12/18 2013/12/25 静岡大学
4477 2013JP063961 WO 2013/183434 世界知的所有権機関(WIPO) RADIATION DOSIMETER AND RADIATION DOSE CALCULATION METHOD 2013/12/18 2013/12/25 静岡大学
4478 2013JP063061 WO 2013183396 世界知的所有権機関(WIPO) GRAPHIC INFORMATION PROCESSING DEVICE, GRAPHIC INFORMATION PROCESSING METHOD, AND GRAPHIC INFORMATION PROCESSING PROGRAM 2014/07/25 2015/07/28 静岡大学
4479 2013JP070381 WO 2014017653 世界知的所有権機関(WIPO) CAPSULE COMPOUND, NEGATIVE-ION REMOVER, AND NEGATIVE-ION REMOVAL METHOD 2014/09/26 2015/08/25 静岡大学
4480 2013JP071372 WO 2014024922 世界知的所有権機関(WIPO) SOLID-STATE IMAGE PICKUP DEVICE 新技術説明会 2014/09/26 2015/08/25 静岡大学
4481 2013JP070869 WO 2014021417 世界知的所有権機関(WIPO) SEMICONDUCTOR ELEMENT AND SOLID-STATE IMAGE PICKUP DEVICE 2014/09/26 2015/08/25 静岡大学
4482 2014JP058086 WO 2014157086 世界知的所有権機関(WIPO) IMAGING DEVICE 2015/03/26 2015/08/25 静岡大学
4483 2014JP054546 WO 2014136619 世界知的所有権機関(WIPO) LIGHT UP-CONVERSION LUMINESCENT SUBSTANCE 2015/03/27 2015/08/25 静岡大学
4484 2014JP059947 WO 2014181619 世界知的所有権機関(WIPO) DISTANCE MEASUREMENT DEVICE 2015/03/31 2015/08/25 静岡大学
4485 2015JP053572 WO 2015122391 世界知的所有権機関(WIPO) QUANTUM DOT FLUORESCENCE ENHANCED IMMUNOASSAY 2015/11/26 2015/11/26 静岡大学
4486 2015JP000559 WO 2015118884 世界知的所有権機関(WIPO) CHARGE MODULATION ELEMENT AND SOLID-STATE IMAGING DEVICE 2015/11/26 2019/04/22 静岡大学
4487 2015JP053370 WO 2015119243 世界知的所有権機関(WIPO) IMAGE SENSOR 2015/11/26 2015/11/26 静岡大学
4488 2015JP061717 WO 2015170562 世界知的所有権機関(WIPO) PHOSPHORUS PORPHYRIN COMPOUND, METHOD FOR PRODUCING SAME, AND BIOMOLECULE DAMAGING AGENT 2016/02/05 2016/02/05 静岡大学
4489 2015JP076335 WO 2016047532 世界知的所有権機関(WIPO) ABSCISIC ACID DERIVATIVE 2016/08/05 2016/08/05 静岡大学
4490 2015JP076336 WO 2016047533 世界知的所有権機関(WIPO) ABSCINAZOLE 2016/08/05 2016/08/05 静岡大学
4491 2015JP075748 WO 2016043122 世界知的所有権機関(WIPO) COORDINATION POLYMER COMPOUND, POROUS MATERIAL, ANION REMOVER, AND ANION REMOVAL METHOD 2016/08/05 2016/08/05 静岡大学
4492 2015JP075625 WO 2016039385 世界知的所有権機関(WIPO) ORGANIC-HYDRIDE DEHYDROGENATION CATALYST AND METHOD FOR PRODUCING SAME 2016/08/05 2019/02/01 静岡大学
4493 2016JP054316 WO 2016133053 世界知的所有権機関(WIPO) RANGE IMAGE MEASURING APPARATUS 2016/10/05 2019/02/01 静岡大学
4494 2016JP054182 WO 2016136508 世界知的所有権機関(WIPO) METHOD FOR PRODUCING 2-AZA-8OXOHYPOXANTHINE 2016/10/05 2019/02/01 静岡大学
4495 2016JP056293 WO 2016147856 世界知的所有権機関(WIPO) POSITIVE ELECTRODE ACTIVE MATERIAL FOR NON-AQUEOUS ELECTROLYTE SECONDARY CELL, METHOD FOR MANUFACTURING SAID POSITIVE ELECTRODE ACTIVE MATERIAL, CELL CONTAINING SAID POSITIVE ELECTRODE ACTIVE MATERIAL, AND METHOD FOR CHARGING CELL 2016/11/11 2019/02/01 静岡大学
4496 2016JP001869 WO 2016157910 世界知的所有権機関(WIPO) LENGTH MEASURING ELEMENT AND SOLID-STATE IMAGE CAPTURING DEVICE 2016/12/06 2019/02/01 静岡大学
4497 2016JP074265 WO 2017030194 世界知的所有権機関(WIPO) OBSERVATION SYSTEM 新技術説明会 2017/03/29 2019/04/22 静岡大学
4498 2017JP004517 WO 2017150107 世界知的所有権機関(WIPO) ION CONCENTRATION MEASURING DEVICE AND ION CONCENTRATION MEASURING METHOD 新技術説明会 2017/09/21 2019/04/22 静岡大学
4499 2018JP004707 WO 2018147439 世界知的所有権機関(WIPO) AGENT FOR INDUCING STRESS TOLERANCE IN PLANTS 2018/11/02 2019/02/01 静岡大学
4500 2018JP004708 WO 2018147440 世界知的所有権機関(WIPO) AGENT FOR INDUCING OSMOTIC PRESSURE STRESS TOLERANCE IN PLANTS, AND METHOD FOR ALLEVIATING DRYING STRESS 2018/11/02 2019/02/01 静岡大学

(45/48 page)

PAGE TOP